Time;durP1;ratioP1;P1;durP2;ratioP2;P2;SDS_P1;SDS_P2;PMS_P1;PMS_P2;Temp;Humidity;BMP_temperature;BMP_pressure;BME280_temperature;BME280_humidity;BME280_pressure;Samples;Min_cycle;Max_cycle;Signal;HPM_P1;HPM_P2
2023/08/11 05:50:50;;;;;;;;;13.00;12.00;;;;;;;;5007723;28;45549;-71
2023/08/11 05:53:15;;;;;;;;;12.00;12.00;;;;;;;;5019191;28;45430;-71
2023/08/11 05:55:41;;;;;;;;;11.50;10.00;;;;;;;;5021205;28;45281;-71
2023/08/11 05:58:06;;;;;;;;;12.33;12.33;;;;;;;;5021625;28;45459;-71
2023/08/11 06:00:31;;;;;;;;;18.00;16.33;;;;;;;;5022923;28;45260;-71
2023/08/11 06:02:56;;;;;;;;;15.33;15.33;;;;;;;;5033411;28;45462;-71
2023/08/11 06:05:23;;;;;;;;;16.33;15.00;;;;;;;;5041042;28;45798;-71
2023/08/11 06:07:48;;;;;;;;;16.00;14.67;;;;;;;;5024737;28;45498;-71
2023/08/11 06:10:14;;;;;;;;;17.00;15.67;;;;;;;;5021682;28;45593;-71
2023/08/11 06:12:39;;;;;;;;;13.67;13.67;;;;;;;;5028259;28;45285;-71
2023/08/11 06:15:05;;;;;;;;;12.00;11.67;;;;;;;;5028909;28;45359;-73
2023/08/11 06:17:30;;;;;;;;;11.67;10.00;;;;;;;;5028760;28;45308;-73
2023/08/11 06:19:57;;;;;;;;;6.00;5.00;;;;;;;;5025589;28;45439;-73
2023/08/11 06:22:22;;;;;;;;;10.00;8.67;;;;;;;;5026159;28;47541;-71
2023/08/11 06:24:47;;;;;;;;;6.67;6.67;;;;;;;;5023932;28;45398;-71
2023/08/11 06:27:13;;;;;;;;;8.67;6.33;;;;;;;;5029657;28;45354;-70
2023/08/11 06:29:39;;;;;;;;;7.00;7.00;;;;;;;;5030183;28;45233;-71
2023/08/11 06:32:04;;;;;;;;;7.75;6.50;;;;;;;;5030187;28;47652;-72
2023/08/11 06:34:29;;;;;;;;;8.00;8.00;;;;;;;;5031520;28;45497;-71
2023/08/11 06:36:54;;;;;;;;;8.00;6.00;;;;;;;;5029827;28;45490;-71
2023/08/11 06:39:19;;;;;;;;;7.00;5.33;;;;;;;;5028772;28;45703;-71
2023/08/11 06:41:45;;;;;;;;;7.00;7.00;;;;;;;;5020437;28;45494;-72
2023/08/11 06:44:10;;;;;;;;;8.67;8.67;;;;;;;;5030243;28;45387;-69
2023/08/11 06:46:35;;;;;;;;;6.00;6.00;;;;;;;;5022569;28;45569;-70
2023/08/11 06:49:01;;;;;;;;;7.00;7.00;;;;;;;;5028953;28;45489;-69
2023/08/11 06:51:26;;;;;;;;;8.50;7.00;;;;;;;;5038641;28;46646;-69
2023/08/11 06:53:51;;;;;;;;;8.50;6.75;;;;;;;;5026428;28;45323;-71
2023/08/11 06:56:16;;;;;;;;;7.00;5.00;;;;;;;;5025802;28;45296;-70
2023/08/11 06:58:42;;;;;;;;;8.00;6.00;;;;;;;;5024370;28;45280;-71
2023/08/11 07:01:07;;;;;;;;;8.75;8.75;;;;;;;;5020719;28;45379;-70
2023/08/11 07:03:33;;;;;;;;;9.00;9.00;;;;;;;;5024084;28;45391;-71
2023/08/11 07:05:58;;;;;;;;;6.00;6.00;;;;;;;;5021771;28;45284;-71
2023/08/11 07:08:24;;;;;;;;;10.00;8.00;;;;;;;;5024604;28;45657;-70
2023/08/11 07:10:49;;;;;;;;;7.50;7.00;;;;;;;;5021631;28;47317;-71
2023/08/11 07:13:14;;;;;;;;;8.75;7.00;;;;;;;;5023394;28;45280;-70
2023/08/11 07:15:42;;;;;;;;;9.25;8.75;;;;;;;;5024136;28;45383;-70
2023/08/11 07:18:08;;;;;;;;;7.00;7.00;;;;;;;;5024877;28;45444;-71
2023/08/11 07:20:33;;;;;;;;;9.25;8.00;;;;;;;;5023305;28;45626;-70
2023/08/11 07:22:58;;;;;;;;;8.00;8.00;;;;;;;;5026168;28;45438;-70
2023/08/11 07:25:23;;;;;;;;;10.50;8.25;;;;;;;;5039092;28;45318;-70
2023/08/11 07:27:49;;;;;;;;;8.00;8.00;;;;;;;;5041135;28;45581;-69
2023/08/11 07:30:14;;;;;;;;;7.75;7.75;;;;;;;;5040142;28;45589;-70
2023/08/11 07:32:41;;;;;;;;;10.00;10.00;;;;;;;;5024835;28;45503;-72
2023/08/11 07:35:06;;;;;;;;;9.75;9.50;;;;;;;;5025384;28;45479;-69
2023/08/11 07:37:32;;;;;;;;;8.75;8.75;;;;;;;;5024910;28;45335;-69
2023/08/11 07:39:57;;;;;;;;;11.75;9.00;;;;;;;;5020303;28;47604;-69
2023/08/11 07:42:22;;;;;;;;;11.00;9.00;;;;;;;;5023000;28;45299;-69
2023/08/11 07:44:47;;;;;;;;;9.25;9.25;;;;;;;;5023571;28;44759;-69
2023/08/11 07:47:13;;;;;;;;;8.50;8.50;;;;;;;;5024128;28;45522;-70
2023/08/11 07:49:38;;;;;;;;;8.50;7.50;;;;;;;;5024643;28;46421;-69
2023/08/11 07:52:03;;;;;;;;;11.00;11.00;;;;;;;;5019036;28;45375;-69
2023/08/11 07:54:29;;;;;;;;;11.25;9.75;;;;;;;;5022268;28;45438;-68
2023/08/11 07:56:54;;;;;;;;;10.50;10.50;;;;;;;;5024958;28;45336;-70
2023/08/11 07:59:19;;;;;;;;;9.25;8.75;;;;;;;;5019951;28;46739;-69
2023/08/11 08:01:44;;;;;;;;;12.75;12.25;;;;;;;;5024381;28;45599;-69
2023/08/11 08:04:10;;;;;;;;;10.00;9.25;;;;;;;;5024967;28;45406;-69
2023/08/11 08:06:43;;;;;;;;;8.75;8.75;;;;;;;;5030481;28;45270;-69
2023/08/11 08:09:11;;;;;;;;;9.40;9.40;;;;;;;;5024559;28;46129;-69
2023/08/11 08:11:36;;;;;;;;;8.40;8.40;;;;;;;;5023395;28;45531;-69
2023/08/11 08:14:01;;;;;;;;;9.25;8.75;;;;;;;;5025827;28;45311;-69
2023/08/11 08:16:27;;;;;;;;;11.50;9.25;;;;;;;;5025315;28;45576;-68
2023/08/11 08:18:52;;;;;;;;;10.25;10.25;;;;;;;;5026737;28;45354;-69
2023/08/11 08:21:17;;;;;;;;;9.50;9.00;;;;;;;;5026563;28;45394;-69
2023/08/11 08:23:42;;;;;;;;;9.00;7.25;;;;;;;;5028455;28;45319;-69
2023/08/11 08:26:08;;;;;;;;;8.25;8.25;;;;;;;;5043070;28;46141;-69
2023/08/11 08:28:33;;;;;;;;;9.00;7.50;;;;;;;;5044796;28;48353;-68
2023/08/11 08:30:58;;;;;;;;;10.00;9.50;;;;;;;;5028818;28;45412;-71
2023/08/11 08:33:23;;;;;;;;;12.50;11.00;;;;;;;;5030541;28;45415;-70
2023/08/11 08:35:49;;;;;;;;;9.25;9.25;;;;;;;;5019516;28;45146;-70
2023/08/11 08:38:14;;;;;;;;;11.00;10.00;;;;;;;;5028346;28;46329;-73
2023/08/11 08:40:40;;;;;;;;;9.25;9.00;;;;;;;;5019541;28;45324;-78
2023/08/11 08:43:05;;;;;;;;;11.50;8.75;;;;;;;;5029972;28;45732;-73
2023/08/11 08:45:31;;;;;;;;;10.25;10.00;;;;;;;;5019812;28;45444;-72
2023/08/11 08:47:57;;;;;;;;;6.25;6.25;;;;;;;;5008206;28;45169;-73
2023/08/11 08:50:23;;;;;;;;;8.40;8.40;;;;;;;;5011647;28;45355;-74
2023/08/11 08:52:48;;;;;;;;;7.00;7.00;;;;;;;;5006345;28;45629;-69
2023/08/11 08:55:15;;;;;;;;;8.80;8.80;;;;;;;;5033576;28;45424;-70
2023/08/11 08:57:40;;;;;;;;;7.25;7.25;;;;;;;;5021409;28;45505;-70
2023/08/11 09:00:07;;;;;;;;;7.25;6.25;;;;;;;;5023493;28;45296;-71
2023/08/11 09:02:33;;;;;;;;;9.20;8.60;;;;;;;;5027803;28;45427;-71
2023/08/11 09:04:58;;;;;;;;;8.50;8.50;;;;;;;;5024137;28;45296;-70
2023/08/11 09:07:24;;;;;;;;;6.75;6.75;;;;;;;;5029198;28;46525;-70
2023/08/11 09:09:49;;;;;;;;;7.25;6.75;;;;;;;;5025360;28;45331;-70
2023/08/11 09:12:14;;;;;;;;;7.00;7.00;;;;;;;;5045636;28;45544;-70
2023/08/11 09:14:41;;;;;;;;;9.25;8.00;;;;;;;;5025556;28;45414;-71
2023/08/11 09:17:07;;;;;;;;;8.40;7.20;;;;;;;;5031244;28;45430;-70
2023/08/11 09:19:32;;;;;;;;;8.00;8.00;;;;;;;;5023157;28;45321;-70
2023/08/11 09:21:58;;;;;;;;;8.75;8.00;;;;;;;;5027779;28;45674;-70
2023/08/11 09:24:23;;;;;;;;;11.75;8.50;;;;;;;;5025250;28;45452;-70
2023/08/11 09:26:52;;;;;;;;;8.25;8.25;;;;;;;;5026742;28;46264;-70
2023/08/11 09:29:17;;;;;;;;;8.40;7.60;;;;;;;;5027582;28;45377;-70
2023/08/11 09:31:45;;;;;;;;;6.25;6.00;;;;;;;;5027626;28;45481;-71
2023/08/11 09:34:12;;;;;;;;;8.40;8.00;;;;;;;;5024819;28;45445;-70
2023/08/11 09:36:39;;;;;;;;;8.40;8.40;;;;;;;;5042932;28;46124;-70
2023/08/11 09:39:13;;;;;;;;;7.40;7.20;;;;;;;;5030964;28;45444;-70
2023/08/11 09:41:42;;;;;;;;;10.00;7.20;;;;;;;;5018985;28;45462;-71
2023/08/11 09:44:08;;;;;;;;;6.40;6.40;;;;;;;;5029803;28;46547;-71
2023/08/11 09:46:37;;;;;;;;;9.25;7.75;;;;;;;;5018364;28;48121;-70
2023/08/11 09:49:03;;;;;;;;;6.60;5.60;;;;;;;;5021044;28;45379;-70
2023/08/11 09:51:29;;;;;;;;;9.25;8.25;;;;;;;;5019358;28;45331;-71
2023/08/11 09:53:57;;;;;;;;;9.00;6.80;;;;;;;;5026260;28;45377;-72
2023/08/11 09:56:23;;;;;;;;;7.80;6.80;;;;;;;;5026095;28;46217;-72
2023/08/11 09:58:49;;;;;;;;;5.25;4.00;;;;;;;;5024888;28;45347;-72
2023/08/11 10:01:15;;;;;;;;;8.00;6.60;;;;;;;;5022279;28;45283;-70
2023/08/11 10:03:46;;;;;;;;;6.00;5.25;;;;;;;;5017247;28;46585;-71
2023/08/11 10:06:16;;;;;;;;;4.60;4.60;;;;;;;;5018774;28;46581;-71
2023/08/11 10:08:42;;;;;;;;;4.80;4.80;;;;;;;;5026745;28;45151;-70
2023/08/11 10:11:08;;;;;;;;;4.40;4.40;;;;;;;;5022417;28;45495;-70
2023/08/11 10:13:33;;;;;;;;;3.25;3.25;;;;;;;;5038113;28;45783;-70
2023/08/11 10:15:59;;;;;;;;;7.75;5.00;;;;;;;;5020665;28;46473;-70
2023/08/11 10:18:25;;;;;;;;;5.60;5.60;;;;;;;;5028896;28;45497;-70
2023/08/11 10:20:51;;;;;;;;;4.75;4.75;;;;;;;;5020405;28;45376;-70
2023/08/11 10:23:17;;;;;;;;;6.00;6.00;;;;;;;;5020632;28;45314;-69
2023/08/11 10:25:44;;;;;;;;;7.00;6.60;;;;;;;;5019552;28;48405;-70
2023/08/11 10:28:11;;;;;;;;;9.60;5.80;;;;;;;;5026247;28;45319;-72
2023/08/11 10:30:36;;;;;;;;;5.20;5.20;;;;;;;;5020030;28;45232;-72
2023/08/11 10:33:03;;;;;;;;;5.50;4.25;;;;;;;;5025219;28;45588;-71
2023/08/11 10:35:33;;;;;;;;;7.20;5.80;;;;;;;;5017663;28;46930;-71
2023/08/11 10:37:59;;;;;;;;;8.00;6.20;;;;;;;;5011468;28;45415;-71
2023/08/11 10:40:32;;;;;;;;;5.25;5.25;;;;;;;;5016490;28;45276;-71
2023/08/11 10:42:59;;;;;;;;;8.20;5.20;;;;;;;;5010059;28;45529;-71
2023/08/11 10:45:24;;;;;;;;;7.80;6.80;;;;;;;;5019093;28;46619;-71
2023/08/11 10:47:53;;;;;;;;;7.50;5.25;;;;;;;;5008498;28;45159;-70
2023/08/11 10:50:19;;;;;;;;;10.00;8.60;;;;;;;;5012949;28;45382;-70
2023/08/11 10:52:46;;;;;;;;;7.00;7.00;;;;;;;;5033509;28;45872;-70
2023/08/11 10:55:13;;;;;;;;;6.80;6.40;;;;;;;;5031728;28;47615;-70
2023/08/11 10:57:39;;;;;;;;;5.00;5.00;;;;;;;;5010852;28;45414;-70
2023/08/11 11:00:05;;;;;;;;;7.00;6.00;;;;;;;;5024198;28;45440;-71
2023/08/11 11:02:32;;;;;;;;;8.25;6.00;;;;;;;;5026623;28;45288;-71
2023/08/11 11:04:57;;;;;;;;;8.60;7.00;;;;;;;;5018425;28;47316;-71
2023/08/11 11:07:23;;;;;;;;;6.00;5.75;;;;;;;;5037571;28;45505;-71
2023/08/11 11:09:50;;;;;;;;;8.00;6.00;;;;;;;;5042564;28;45477;-70
2023/08/11 11:12:15;;;;;;;;;6.00;6.00;;;;;;;;5046658;28;45748;-70
2023/08/11 11:14:40;;;;;;;;;6.75;3.75;;;;;;;;5040633;28;47964;-71
2023/08/11 11:17:06;;;;;;;;;5.25;5.00;;;;;;;;5028315;28;45378;-70
2023/08/11 11:19:31;;;;;;;;;6.25;6.25;;;;;;;;5010610;28;45247;-70
2023/08/11 11:21:56;;;;;;;;;3.25;3.25;;;;;;;;5016126;28;45529;-69
2023/08/11 11:24:22;;;;;;;;;7.00;6.00;;;;;;;;5013169;28;45558;-70
2023/08/11 11:26:47;;;;;;;;;5.00;5.00;;;;;;;;5031546;28;45351;-70
2023/08/11 11:29:13;;;;;;;;;10.25;7.25;;;;;;;;5032632;28;45518;-70
2023/08/11 11:31:39;;;;;;;;;7.00;5.25;;;;;;;;5022160;28;46784;-70
2023/08/11 11:34:05;;;;;;;;;5.40;5.40;;;;;;;;5017760;28;45445;-70
2023/08/11 11:36:31;;;;;;;;;5.75;5.75;;;;;;;;5010249;28;45236;-70
2023/08/11 11:38:56;;;;;;;;;7.50;5.00;;;;;;;;5008839;28;45213;-70
2023/08/11 11:41:21;;;;;;;;;4.00;4.00;;;;;;;;5019904;28;45197;-71
2023/08/11 11:43:47;;;;;;;;;4.00;4.00;;;;;;;;5008694;28;46004;-70
2023/08/11 11:46:16;;;;;;;;;7.60;5.00;;;;;;;;5017589;28;45300;-71
2023/08/11 11:48:42;;;;;;;;;6.20;4.40;;;;;;;;5006512;28;45355;-71
2023/08/11 11:51:07;;;;;;;;;5.25;3.75;;;;;;;;5019354;28;45443;-70
2023/08/11 11:53:32;;;;;;;;;4.50;4.50;;;;;;;;5032279;28;45785;-70
2023/08/11 11:55:58;;;;;;;;;6.50;6.00;;;;;;;;5023654;28;45270;-70
2023/08/11 11:58:23;;;;;;;;;8.25;6.25;;;;;;;;5025015;28;45490;-70
2023/08/11 12:00:48;;;;;;;;;7.00;5.25;;;;;;;;5022904;28;45406;-70
2023/08/11 12:03:13;;;;;;;;;4.00;4.00;;;;;;;;5019702;28;45645;-69
2023/08/11 12:05:39;;;;;;;;;8.75;5.00;;;;;;;;5024091;28;45350;-70
2023/08/11 12:08:17;;;;;;;;;7.00;4.75;;;;;;;;5027279;28;45233;-70
2023/08/11 12:10:44;;;;;;;;;4.00;4.00;;;;;;;;5010751;28;45582;-70
2023/08/11 12:13:11;;;;;;;;;4.60;4.60;;;;;;;;5048939;28;46581;-70
2023/08/11 12:15:36;;;;;;;;;3.60;3.60;;;;;;;;5014910;28;45316;-70
2023/08/11 12:18:03;;;;;;;;;9.00;6.00;;;;;;;;5029196;28;45408;-70
2023/08/11 12:20:28;;;;;;;;;4.60;4.60;;;;;;;;5015227;28;45392;-70
2023/08/11 12:22:53;;;;;;;;;5.00;5.00;;;;;;;;5019451;28;45399;-69
2023/08/11 12:25:19;;;;;;;;;7.75;4.25;;;;;;;;5019544;28;45536;-69
2023/08/11 12:27:44;;;;;;;;;4.00;4.00;;;;;;;;5023555;28;45276;-68
2023/08/11 12:30:10;;;;;;;;;4.50;4.50;;;;;;;;5017744;28;45256;-69
2023/08/11 12:32:35;;;;;;;;;4.80;4.80;;;;;;;;5040001;28;47199;-70
2023/08/11 12:35:02;;;;;;;;;6.50;5.75;;;;;;;;5018332;28;45427;-70
2023/08/11 12:37:27;;;;;;;;;16.40;15.80;;;;;;;;5020525;28;45370;-69
2023/08/11 12:39:52;;;;;;;;;5.00;4.00;;;;;;;;5014560;28;45475;-69
2023/08/11 12:42:18;;;;;;;;;6.00;4.00;;;;;;;;5020614;28;45371;-69
2023/08/11 12:44:43;;;;;;;;;5.25;5.25;;;;;;;;5012170;28;45280;-70
2023/08/11 12:47:08;;;;;;;;;7.00;6.00;;;;;;;;5041894;28;45366;-69
2023/08/11 12:49:33;;;;;;;;;8.50;6.00;;;;;;;;5012602;28;45228;-69
2023/08/11 12:51:59;;;;;;;;;4.75;4.75;;;;;;;;5015787;28;46444;-70
2023/08/11 12:54:24;;;;;;;;;6.00;5.00;;;;;;;;5016573;28;45545;-69
2023/08/11 12:56:49;;;;;;;;;5.00;5.00;;;;;;;;5013121;28;45456;-69
2023/08/11 12:59:14;;;;;;;;;5.50;4.25;;;;;;;;5016049;28;45446;-69
2023/08/11 13:01:39;;;;;;;;;4.75;4.75;;;;;;;;5023660;28;45367;-70
2023/08/11 13:04:06;;;;;;;;;6.00;4.50;;;;;;;;5019569;28;46082;-68
2023/08/11 13:06:32;;;;;;;;;4.80;4.20;;;;;;;;5026668;28;45398;-69
2023/08/11 13:08:57;;;;;;;;;3.75;3.75;;;;;;;;5016542;28;45292;-68
2023/08/11 13:11:22;;;;;;;;;6.00;5.75;;;;;;;;5024725;28;46425;-68
2023/08/11 13:13:48;;;;;;;;;4.75;4.75;;;;;;;;5016223;28;45407;-69
2023/08/11 13:16:13;;;;;;;;;7.50;4.50;;;;;;;;5018038;28;45312;-69
2023/08/11 13:18:38;;;;;;;;;4.50;4.50;;;;;;;;5012823;28;45144;-69
2023/08/11 13:21:04;;;;;;;;;6.00;5.50;;;;;;;;5016757;28;45518;-68
2023/08/11 13:23:31;;;;;;;;;4.50;4.25;;;;;;;;5010734;28;45616;-70
2023/08/11 13:25:57;;;;;;;;;5.60;5.60;;;;;;;;5016691;28;45206;-70
2023/08/11 13:28:22;;;;;;;;;5.00;5.00;;;;;;;;5008705;28;45522;-69
2023/08/11 13:30:47;;;;;;;;;5.75;5.75;;;;;;;;5022226;28;46320;-69
2023/08/11 13:33:13;;;;;;;;;6.50;6.50;;;;;;;;5026361;28;45437;-69
2023/08/11 13:35:38;;;;;;;;;8.50;7.50;;;;;;;;5018391;28;45603;-69
2023/08/11 13:38:03;;;;;;;;;8.75;8.75;;;;;;;;5027064;28;45808;-69
2023/08/11 13:40:28;;;;;;;;;4.50;4.00;;;;;;;;5020162;28;45405;-69
2023/08/11 13:42:53;;;;;;;;;9.25;7.75;;;;;;;;5025907;28;45462;-69
2023/08/11 13:45:19;;;;;;;;;9.00;8.50;;;;;;;;5018923;28;45412;-68
2023/08/11 13:47:44;;;;;;;;;9.50;7.50;;;;;;;;5025106;28;47135;-69
2023/08/11 13:50:09;;;;;;;;;9.25;8.00;;;;;;;;5016714;28;46190;-69
2023/08/11 13:52:35;;;;;;;;;6.50;6.50;;;;;;;;5013787;28;45480;-69
2023/08/11 13:55:01;;;;;;;;;9.25;8.25;;;;;;;;5018821;28;45362;-69
2023/08/11 13:57:26;;;;;;;;;9.40;9.00;;;;;;;;5020500;28;45356;-68
2023/08/11 13:59:53;;;;;;;;;8.75;8.75;;;;;;;;5021085;28;45481;-68
2023/08/11 14:02:19;;;;;;;;;8.40;7.20;;;;;;;;5028346;28;45333;-69
2023/08/11 14:04:44;;;;;;;;;7.00;7.00;;;;;;;;5023646;28;45359;-70
2023/08/11 14:07:09;;;;;;;;;6.50;5.25;;;;;;;;5040505;28;47239;-69
2023/08/11 14:09:34;;;;;;;;;8.25;7.00;;;;;;;;5021610;28;46009;-68
2023/08/11 14:11:59;;;;;;;;;7.00;6.75;;;;;;;;5016751;28;45344;-68
2023/08/11 14:14:25;;;;;;;;;5.25;5.25;;;;;;;;5017848;28;45209;-69
2023/08/11 14:16:50;;;;;;;;;7.75;6.75;;;;;;;;5009373;28;45312;-69
2023/08/11 14:19:15;;;;;;;;;7.00;6.25;;;;;;;;5014742;28;46701;-68
2023/08/11 14:21:40;;;;;;;;;8.00;7.25;;;;;;;;5010226;28;45378;-68
2023/08/11 14:24:06;;;;;;;;;8.25;7.00;;;;;;;;5014429;28;45297;-68
2023/08/11 14:26:31;;;;;;;;;8.75;7.75;;;;;;;;5024198;28;45343;-70
2023/08/11 14:28:56;;;;;;;;;7.25;5.50;;;;;;;;5021576;28;45336;-70
2023/08/11 14:31:21;;;;;;;;;8.50;6.00;;;;;;;;5039683;28;45590;-69
2023/08/11 14:33:47;;;;;;;;;8.00;5.75;;;;;;;;5023284;28;45474;-69
2023/08/11 14:36:12;;;;;;;;;6.25;6.00;;;;;;;;5016124;28;45506;-69
2023/08/11 14:38:37;;;;;;;;;5.25;5.25;;;;;;;;5021362;28;46385;-70
2023/08/11 14:41:02;;;;;;;;;6.25;6.25;;;;;;;;5022430;28;45265;-70
2023/08/11 14:43:29;;;;;;;;;7.50;6.25;;;;;;;;5026604;28;45900;-70
2023/08/11 14:45:55;;;;;;;;;8.80;7.00;;;;;;;;5017606;28;45682;-71
2023/08/11 14:48:20;;;;;;;;;9.50;5.75;;;;;;;;5007260;28;46358;-70
2023/08/11 14:50:45;;;;;;;;;7.50;6.50;;;;;;;;5017403;28;45367;-70
2023/08/11 14:53:10;;;;;;;;;4.75;4.75;;;;;;;;5020742;28;45331;-71
2023/08/11 14:55:36;;;;;;;;;4.00;4.00;;;;;;;;5016565;28;45508;-70
2023/08/11 14:58:01;;;;;;;;;10.25;7.25;;;;;;;;5016696;28;46388;-71
2023/08/11 15:00:26;;;;;;;;;4.25;4.25;;;;;;;;5027253;28;45279;-71
2023/08/11 15:02:51;;;;;;;;;5.75;5.75;;;;;;;;5030969;28;45230;-70
2023/08/11 15:05:16;;;;;;;;;6.00;6.00;;;;;;;;5029275;28;45564;-70
2023/08/11 15:07:42;;;;;;;;;7.50;4.75;;;;;;;;5044682;28;47164;-70
2023/08/11 15:10:07;;;;;;;;;5.25;5.25;;;;;;;;5030225;28;45375;-70
2023/08/11 15:12:33;;;;;;;;;6.00;4.75;;;;;;;;5045566;28;45387;-70
2023/08/11 15:14:58;;;;;;;;;4.00;4.00;;;;;;;;5025140;28;45599;-70
2023/08/11 15:17:23;;;;;;;;;4.00;4.00;;;;;;;;5028564;28;46155;-71
2023/08/11 15:19:49;;;;;;;;;5.50;4.25;;;;;;;;5027121;28;45201;-71
2023/08/11 15:22:14;;;;;;;;;5.00;4.25;;;;;;;;5028715;28;45485;-70
2023/08/11 15:24:39;;;;;;;;;5.50;4.00;;;;;;;;5029799;28;45201;-70
2023/08/11 15:27:04;;;;;;;;;5.25;3.25;;;;;;;;5028403;28;45316;-69
2023/08/11 15:29:29;;;;;;;;;4.25;4.25;;;;;;;;5023389;28;45443;-70
2023/08/11 15:31:55;;;;;;;;;4.50;4.50;;;;;;;;5027339;28;45237;-70
2023/08/11 15:34:20;;;;;;;;;4.75;4.75;;;;;;;;5026668;28;45683;-70
2023/08/11 15:36:45;;;;;;;;;6.25;4.75;;;;;;;;5020305;28;46268;-70
2023/08/11 15:39:10;;;;;;;;;5.75;3.25;;;;;;;;5025624;28;45160;-70
2023/08/11 15:41:35;;;;;;;;;4.75;3.75;;;;;;;;5020059;28;45301;-70
2023/08/11 15:44:01;;;;;;;;;2.00;2.00;;;;;;;;5025228;28;45592;-70
2023/08/11 15:46:26;;;;;;;;;2.25;2.25;;;;;;;;5022146;28;45564;-70
2023/08/11 15:48:52;;;;;;;;;6.50;5.00;;;;;;;;5023947;28;45336;-69
2023/08/11 15:51:18;;;;;;;;;5.00;2.75;;;;;;;;5015139;28;45317;-70
2023/08/11 15:53:43;;;;;;;;;2.80;2.80;;;;;;;;5025467;28;45360;-70
2023/08/11 15:56:09;;;;;;;;;4.00;2.50;;;;;;;;5025106;28;45374;-71
2023/08/11 15:58:36;;;;;;;;;5.00;5.00;;;;;;;;5025049;28;45534;-72
2023/08/11 16:01:02;;;;;;;;;3.00;1.80;;;;;;;;5026346;28;45548;-71
2023/08/11 16:03:27;;;;;;;;;2.50;2.50;;;;;;;;5030452;28;46013;-71
2023/08/11 16:05:52;;;;;;;;;2.75;2.75;;;;;;;;5021823;28;45649;-71
2023/08/11 16:08:18;;;;;;;;;5.50;3.00;;;;;;;;5024264;28;45324;-71
2023/08/11 16:10:44;;;;;;;;;2.25;2.25;;;;;;;;5018154;28;45440;-74
2023/08/11 16:13:09;;;;;;;;;3.25;3.25;;;;;;;;5026613;28;45297;-71
2023/08/11 16:15:36;;;;;;;;;3.75;3.75;;;;;;;;5032466;28;46474;-72
2023/08/11 16:18:04;;;;;;;;;2.80;2.80;;;;;;;;5051871;28;45277;-71
2023/08/11 16:20:29;;;;;;;;;6.25;2.75;;;;;;;;5036575;28;45496;-71
2023/08/11 16:22:55;;;;;;;;;4.00;4.00;;;;;;;;5034475;28;45311;-71
2023/08/11 16:25:20;;;;;;;;;3.50;3.50;;;;;;;;5031127;28;47555;-71
2023/08/11 16:27:45;;;;;;;;;3.00;3.00;;;;;;;;5030840;28;45267;-72
2023/08/11 16:30:11;;;;;;;;;3.75;3.75;;;;;;;;5033361;28;45577;-71
2023/08/11 16:32:36;;;;;;;;;5.25;4.00;;;;;;;;5023908;28;46391;-72
2023/08/11 16:35:01;;;;;;;;;3.25;3.25;;;;;;;;5015165;28;46527;-72
2023/08/11 16:37:27;;;;;;;;;3.00;3.00;;;;;;;;5030349;28;45437;-74
2023/08/11 16:39:52;;;;;;;;;5.25;4.50;;;;;;;;5028500;28;45417;-72
2023/08/11 16:42:17;;;;;;;;;3.50;3.50;;;;;;;;5027595;28;45322;-73
2023/08/11 16:44:42;;;;;;;;;4.00;4.00;;;;;;;;5021691;28;45426;-74
2023/08/11 16:47:08;;;;;;;;;3.25;3.00;;;;;;;;5026781;28;46456;-73
2023/08/11 16:49:33;;;;;;;;;5.25;4.00;;;;;;;;5022333;28;45382;-71
2023/08/11 16:51:58;;;;;;;;;3.75;2.75;;;;;;;;5019500;28;45471;-71
2023/08/11 16:54:23;;;;;;;;;5.25;3.25;;;;;;;;5022697;28;46664;-71
2023/08/11 16:56:48;;;;;;;;;2.50;2.50;;;;;;;;5027508;28;45347;-73
2023/08/11 16:59:14;;;;;;;;;4.00;4.00;;;;;;;;5032938;28;46432;-71
2023/08/11 17:01:39;;;;;;;;;4.00;3.00;;;;;;;;5024093;28;45321;-71
2023/08/11 17:04:04;;;;;;;;;5.00;3.50;;;;;;;;5021642;28;47911;-71
2023/08/11 17:06:29;;;;;;;;;3.25;3.25;;;;;;;;5028801;28;45410;-71
2023/08/11 17:08:55;;;;;;;;;6.25;4.00;;;;;;;;5017310;28;45386;-72
2023/08/11 17:11:20;;;;;;;;;9.75;7.50;;;;;;;;5020503;28;45404;-71
2023/08/11 17:13:47;;;;;;;;;4.00;4.00;;;;;;;;5025530;28;45275;-72
2023/08/11 17:16:15;;;;;;;;;3.25;3.25;;;;;;;;5023077;28;45664;-71
2023/08/11 17:18:41;;;;;;;;;5.00;3.75;;;;;;;;5040033;28;45455;-70
2023/08/11 17:21:06;;;;;;;;;4.00;4.00;;;;;;;;5024158;28;45655;-71
2023/08/11 17:23:32;;;;;;;;;5.50;4.00;;;;;;;;5025556;28;45681;-71
2023/08/11 17:25:57;;;;;;;;;4.25;4.00;;;;;;;;5026744;28;46461;-71
2023/08/11 17:28:22;;;;;;;;;5.00;4.00;;;;;;;;5025576;28;45452;-71
2023/08/11 17:30:48;;;;;;;;;5.50;3.75;;;;;;;;5019839;28;45294;-70
2023/08/11 17:33:13;;;;;;;;;4.25;3.50;;;;;;;;5021074;28;46814;-70
2023/08/11 17:35:39;;;;;;;;;4.25;4.00;;;;;;;;5020334;28;45309;-71
2023/08/11 17:38:04;;;;;;;;;4.00;4.00;;;;;;;;5021462;28;45349;-71
2023/08/11 17:40:30;;;;;;;;;6.00;3.25;;;;;;;;5019531;28;47037;-71
2023/08/11 17:42:55;;;;;;;;;4.75;4.75;;;;;;;;5021104;28;46329;-71
2023/08/11 17:45:20;;;;;;;;;5.00;4.50;;;;;;;;5037016;28;45287;-71
2023/08/11 17:47:46;;;;;;;;;4.25;4.25;;;;;;;;5021533;28;45490;-71
2023/08/11 17:50:11;;;;;;;;;3.75;3.25;;;;;;;;5017206;28;45220;-72
2023/08/11 17:52:36;;;;;;;;;4.25;4.00;;;;;;;;5021654;28;45334;-71
2023/08/11 17:55:03;;;;;;;;;5.25;4.25;;;;;;;;5020609;28;45301;-71
2023/08/11 17:57:28;;;;;;;;;6.00;6.00;;;;;;;;5020435;28;45430;-71
2023/08/11 17:59:54;;;;;;;;;5.50;4.00;;;;;;;;5042187;28;45493;-71
2023/08/11 18:02:19;;;;;;;;;6.00;4.25;;;;;;;;5024931;28;47471;-71
2023/08/11 18:04:44;;;;;;;;;5.00;5.00;;;;;;;;5026861;28;45357;-71
2023/08/11 18:07:09;;;;;;;;;4.75;3.25;;;;;;;;5024758;28;45249;-70
2023/08/11 18:09:34;;;;;;;;;5.25;3.75;;;;;;;;5023123;28;46451;-71
2023/08/11 18:12:00;;;;;;;;;5.00;3.00;;;;;;;;5024856;28;45398;-70
2023/08/11 18:14:26;;;;;;;;;4.75;4.00;;;;;;;;5024307;28;45481;-71
2023/08/11 18:16:51;;;;;;;;;4.25;3.75;;;;;;;;5023930;28;45339;-71
2023/08/11 18:19:16;;;;;;;;;5.50;5.25;;;;;;;;5027378;28;45224;-71
2023/08/11 18:21:41;;;;;;;;;4.25;2.75;;;;;;;;5024774;28;46689;-70
2023/08/11 18:24:07;;;;;;;;;5.50;5.25;;;;;;;;5042455;28;46043;-71
2023/08/11 18:26:34;;;;;;;;;6.50;6.00;;;;;;;;5025091;28;45276;-71
2023/08/11 18:28:59;;;;;;;;;4.00;4.00;;;;;;;;5024690;28;45205;-71
2023/08/11 18:31:25;;;;;;;;;4.75;4.50;;;;;;;;5021584;28;45417;-71
2023/08/11 18:33:50;;;;;;;;;5.00;3.75;;;;;;;;5024921;28;45411;-71
2023/08/11 18:36:15;;;;;;;;;4.00;4.00;;;;;;;;5022783;28;45340;-71
2023/08/11 18:38:44;;;;;;;;;3.75;3.25;;;;;;;;5024808;28;45154;-71
2023/08/11 18:41:09;;;;;;;;;3.50;3.50;;;;;;;;5022530;28;47130;-70
2023/08/11 18:43:34;;;;;;;;;2.00;1.00;;;;;;;;5022014;28;45229;-70
2023/08/11 18:46:02;;;;;;;;;6.75;5.00;;;;;;;;5023762;28;45320;-71
2023/08/11 18:48:27;;;;;;;;;4.50;3.50;;;;;;;;5023217;28;45501;-71
2023/08/11 18:50:53;;;;;;;;;6.50;3.75;;;;;;;;5016445;28;47772;-70
2023/08/11 18:53:18;;;;;;;;;4.25;4.00;;;;;;;;5018935;28;45327;-71
2023/08/11 18:55:43;;;;;;;;;5.25;4.50;;;;;;;;5022612;28;45576;-70
2023/08/11 18:58:08;;;;;;;;;6.00;5.00;;;;;;;;5022679;28;45339;-70
2023/08/11 19:00:34;;;;;;;;;7.00;6.00;;;;;;;;5021764;28;45769;-69
2023/08/11 19:02:59;;;;;;;;;5.75;5.75;;;;;;;;5023112;28;45329;-70
2023/08/11 19:05:24;;;;;;;;;6.00;5.25;;;;;;;;5022071;28;45352;-71
2023/08/11 19:07:49;;;;;;;;;4.75;4.75;;;;;;;;5022950;28;45731;-73
2023/08/11 19:10:15;;;;;;;;;5.00;5.00;;;;;;;;5013675;28;47166;-70
2023/08/11 19:12:40;;;;;;;;;3.25;3.25;;;;;;;;5024397;28;45386;-72
2023/08/11 19:15:05;;;;;;;;;3.75;3.75;;;;;;;;5022309;28;45434;-72
2023/08/11 19:17:31;;;;;;;;;5.25;5.00;;;;;;;;5022752;28;45220;-70
2023/08/11 19:19:56;;;;;;;;;5.25;4.75;;;;;;;;5022261;28;46415;-72
2023/08/11 19:22:22;;;;;;;;;3.75;3.75;;;;;;;;5023913;28;45366;-72
2023/08/11 19:24:47;;;;;;;;;4.75;3.25;;;;;;;;5022645;28;45362;-72
2023/08/11 19:27:13;;;;;;;;;3.50;3.25;;;;;;;;5024043;28;45378;-71
2023/08/11 19:29:38;;;;;;;;;6.00;4.75;;;;;;;;5020850;28;45368;-72
2023/08/11 19:32:03;;;;;;;;;6.75;5.75;;;;;;;;5022151;28;45280;-73
2023/08/11 19:34:28;;;;;;;;;4.50;4.50;;;;;;;;5022383;28;45735;-71
2023/08/11 19:36:54;;;;;;;;;5.50;5.50;;;;;;;;5021634;28;45683;-71
2023/08/11 19:39:19;;;;;;;;;6.00;4.50;;;;;;;;5022342;28;45697;-71
2023/08/11 19:41:44;;;;;;;;;9.25;8.00;;;;;;;;5023592;28;45319;-71
2023/08/11 19:44:11;;;;;;;;;6.25;6.25;;;;;;;;5022102;28;45323;-71
2023/08/11 19:46:36;;;;;;;;;5.25;4.25;;;;;;;;5023872;28;45448;-70
2023/08/11 19:49:02;;;;;;;;;8.75;6.75;;;;;;;;5022097;28;46656;-71
2023/08/11 19:51:27;;;;;;;;;4.00;4.00;;;;;;;;5020681;28;45279;-71
2023/08/11 19:53:52;;;;;;;;;5.00;5.00;;;;;;;;5023959;28;45375;-71
2023/08/11 19:56:17;;;;;;;;;9.25;6.50;;;;;;;;5023280;28;45353;-71
2023/08/11 19:58:42;;;;;;;;;6.75;6.25;;;;;;;;5024520;28;45349;-71
2023/08/11 20:01:08;;;;;;;;;4.25;4.25;;;;;;;;5021229;28;45298;-71
2023/08/11 20:03:33;;;;;;;;;5.00;5.00;;;;;;;;5040037;28;45364;-71
2023/08/11 20:05:59;;;;;;;;;5.50;5.00;;;;;;;;5020881;28;46868;-71
2023/08/11 20:08:24;;;;;;;;;4.00;4.00;;;;;;;;5023056;28;47421;-71
2023/08/11 20:10:49;;;;;;;;;3.00;3.00;;;;;;;;5019955;28;45208;-71
2023/08/11 20:13:16;;;;;;;;;3.25;3.25;;;;;;;;5024461;28;45345;-71
